BEE2561 EGAC-EGBB
Flight info
| Callsign | BEE2561 |
|---|---|
| Flight time | 0h 45m |
| Altitude | 21000 |
| Route | DUFFY L15 PEPOD Q38 MAKUX |
| Aircraft | DH8D/M-SDE2E3FGRY/H |
Departure
| Time | 2026-04-26 14:35 |
|---|---|
| Airport | George Best Belfast City Airport (EGAC) |
Arrival
| Time | 2026-04-26 15:20 |
|---|---|
| Airport | Birmingham Airport (EGBB) |
| Time | Latitude | Longitude | Altitude | Speed | Heading |
|---|---|---|---|---|---|
| 2026-04-26 14:16 | 54.61600 | -5.87027 | 17 ft | 0 kts | 123° |
| 2026-04-26 14:25 | 54.61600 | -5.87026 | 17 ft | 0 kts | 123° |
| 2026-04-26 14:25 | 54.61603 | -5.87035 | 17 ft | 2 kts | 123° |
| 2026-04-26 14:25 | 54.61611 | -5.87057 | 17 ft | 2 kts | 123° |
| 2026-04-26 14:26 | 54.61619 | -5.87078 | 17 ft | 2 kts | 129° |
| 2026-04-26 14:26 | 54.61631 | -5.87090 | 17 ft | 2 kts | 173° |
| 2026-04-26 14:26 | 54.61645 | -5.87086 | 17 ft | 1 kts | 212° |
| 2026-04-26 14:26 | 54.61648 | -5.87083 | 17 ft | 0 kts | 215° |
| 2026-04-26 14:28 | 54.61639 | -5.87093 | 17 ft | 2 kts | 215° |
| 2026-04-26 14:28 | 54.61619 | -5.87118 | 17 ft | 4 kts | 214° |
| 2026-04-26 14:28 | 54.61592 | -5.87149 | 17 ft | 5 kts | 213° |
| 2026-04-26 14:29 | 54.61561 | -5.87185 | 17 ft | 5 kts | 216° |
| 2026-04-26 14:29 | 54.61532 | -5.87220 | 18 ft | 5 kts | 214° |
| 2026-04-26 14:29 | 54.61496 | -5.87263 | 17 ft | 7 kts | 214° |
| 2026-04-26 14:29 | 54.61455 | -5.87312 | 17 ft | 7 kts | 214° |
| 2026-04-26 14:30 | 54.61415 | -5.87369 | 17 ft | 7 kts | 228° |
| 2026-04-26 14:30 | 54.61383 | -5.87438 | 17 ft | 7 kts | 229° |
| 2026-04-26 14:30 | 54.61341 | -5.87493 | 17 ft | 7 kts | 213° |
| 2026-04-26 14:30 | 54.61293 | -5.87549 | 16 ft | 9 kts | 214° |
| 2026-04-26 14:31 | 54.61238 | -5.87616 | 15 ft | 10 kts | 215° |
| 2026-04-26 14:31 | 54.61176 | -5.87690 | 14 ft | 11 kts | 214° |
| 2026-04-26 14:31 | 54.61115 | -5.87765 | 15 ft | 10 kts | 216° |
| 2026-04-26 14:31 | 54.61086 | -5.87816 | 15 ft | 0 kts | 243° |
| 2026-04-26 14:32 | 54.61081 | -5.87871 | 15 ft | 7 kts | 277° |
| 2026-04-26 14:32 | 54.61102 | -5.87942 | 16 ft | 5 kts | 308° |
| 2026-04-26 14:32 | 54.61122 | -5.87988 | 16 ft | 4 kts | 308° |
| 2026-04-26 14:33 | 54.61139 | -5.88016 | 17 ft | 2 kts | 330° |
| 2026-04-26 14:33 | 54.61151 | -5.88022 | 17 ft | 0 kts | 357° |
| 2026-04-26 14:33 | 54.61153 | -5.88022 | 17 ft | 0 kts | 360° |
| 2026-04-26 14:33 | 54.61184 | -5.87998 | 17 ft | 0 kts | 32° |
| 2026-04-26 14:34 | 54.61196 | -5.87985 | 18 ft | 3 kts | 31° |
| 2026-04-26 14:34 | 54.61368 | -5.87781 | 18 ft | 74 kts | 34° |
| 2026-04-26 14:34 | 54.61986 | -5.87014 | 21 ft | 137 kts | 37° |
| 2026-04-26 14:34 | 54.62784 | -5.85929 | 362 ft | 153 kts | 38° |
| 2026-04-26 14:35 | 54.63697 | -5.84852 | 757 ft | 173 kts | 26° |
| 2026-04-26 14:35 | 54.64963 | -5.84410 | 1029 ft | 196 kts | 357° |
| 2026-04-26 14:35 | 54.66217 | -5.85219 | 1601 ft | 203 kts | 322° |
| 2026-04-26 14:35 | 54.67003 | -5.87235 | 2234 ft | 207 kts | 286° |
| 2026-04-26 14:36 | 54.66883 | -5.89701 | 2726 ft | 220 kts | 249° |
| 2026-04-26 14:36 | 54.65812 | -5.91604 | 3159 ft | 233 kts | 208° |
| 2026-04-26 14:36 | 54.64204 | -5.91927 | 3710 ft | 241 kts | 169° |
| 2026-04-26 14:36 | 54.62649 | -5.90869 | 4366 ft | 244 kts | 158° |
| 2026-04-26 14:37 | 54.61070 | -5.89843 | 5003 ft | 246 kts | 163° |
| 2026-04-26 14:37 | 54.59437 | -5.89020 | 5656 ft | 247 kts | 167° |
| 2026-04-26 14:37 | 54.57761 | -5.88348 | 6313 ft | 248 kts | 170° |
| 2026-04-26 14:37 | 54.56070 | -5.87801 | 6937 ft | 251 kts | 173° |
| 2026-04-26 14:38 | 54.54348 | -5.87343 | 7561 ft | 253 kts | 174° |
| 2026-04-26 14:38 | 54.52626 | -5.86953 | 8216 ft | 254 kts | 175° |
| 2026-04-26 14:38 | 54.50919 | -5.86034 | 8813 ft | 261 kts | 152° |
| 2026-04-26 14:38 | 54.49451 | -5.84238 | 9419 ft | 265 kts | 146° |
| 2026-04-26 14:39 | 54.47981 | -5.82385 | 10087 ft | 266 kts | 146° |
| 2026-04-26 14:39 | 54.46478 | -5.80508 | 10655 ft | 269 kts | 147° |
| 2026-04-26 14:39 | 54.44944 | -5.78612 | 11205 ft | 274 kts | 147° |
| 2026-04-26 14:39 | 54.43404 | -5.76724 | 11815 ft | 277 kts | 147° |
| 2026-04-26 14:40 | 54.41828 | -5.74803 | 12425 ft | 278 kts | 147° |
| 2026-04-26 14:40 | 54.40244 | -5.72885 | 12990 ft | 281 kts | 147° |
| 2026-04-26 14:40 | 54.38644 | -5.70954 | 13541 ft | 285 kts | 148° |
| 2026-04-26 14:40 | 54.37024 | -5.69004 | 14111 ft | 287 kts | 148° |
| 2026-04-26 14:41 | 54.35387 | -5.67040 | 14670 ft | 290 kts | 148° |
| 2026-04-26 14:41 | 54.33747 | -5.65078 | 15228 ft | 293 kts | 148° |
| 2026-04-26 14:41 | 54.32061 | -5.63064 | 15738 ft | 298 kts | 148° |
| 2026-04-26 14:41 | 54.30381 | -5.61059 | 16297 ft | 299 kts | 148° |
| 2026-04-26 14:42 | 54.28660 | -5.59008 | 16812 ft | 301 kts | 148° |
| 2026-04-26 14:42 | 54.26989 | -5.56815 | 17274 ft | 307 kts | 137° |
| 2026-04-26 14:42 | 54.25652 | -5.53944 | 17823 ft | 310 kts | 127° |
| 2026-04-26 14:42 | 54.24407 | -5.50963 | 18321 ft | 313 kts | 127° |
| 2026-04-26 14:43 | 54.23137 | -5.47922 | 18851 ft | 315 kts | 127° |
| 2026-04-26 14:43 | 54.21876 | -5.44910 | 19406 ft | 316 kts | 127° |
| 2026-04-26 14:43 | 54.20590 | -5.41850 | 19872 ft | 319 kts | 127° |
| 2026-04-26 14:43 | 54.19302 | -5.38792 | 20403 ft | 321 kts | 127° |
| 2026-04-26 14:44 | 54.17999 | -5.35709 | 20889 ft | 324 kts | 128° |
| 2026-04-26 14:44 | 54.16663 | -5.32561 | 21186 ft | 333 kts | 128° |
| 2026-04-26 14:44 | 54.15326 | -5.29394 | 21240 ft | 329 kts | 128° |
| 2026-04-26 14:44 | 54.13984 | -5.26221 | 21253 ft | 333 kts | 128° |
| 2026-04-26 14:45 | 54.12617 | -5.23004 | 21258 ft | 338 kts | 128° |
| 2026-04-26 14:45 | 54.11702 | -5.20854 | 21256 ft | 341 kts | 128° |
| 2026-04-26 14:45 | 54.09817 | -5.16434 | 21256 ft | 346 kts | 128° |
| 2026-04-26 14:45 | 54.08398 | -5.13114 | 21253 ft | 349 kts | 128° |
| 2026-04-26 14:46 | 54.06977 | -5.09792 | 21261 ft | 352 kts | 128° |
| 2026-04-26 14:46 | 54.05523 | -5.06399 | 21259 ft | 354 kts | 128° |
| 2026-04-26 14:46 | 54.04077 | -5.03033 | 21253 ft | 355 kts | 128° |
| 2026-04-26 14:46 | 54.02632 | -4.99670 | 21259 ft | 356 kts | 128° |
| 2026-04-26 14:47 | 54.01177 | -4.96291 | 21265 ft | 357 kts | 128° |
| 2026-04-26 14:47 | 53.99716 | -4.92901 | 21260 ft | 357 kts | 128° |
| 2026-04-26 14:47 | 53.98254 | -4.89514 | 21253 ft | 357 kts | 128° |
| 2026-04-26 14:47 | 53.96791 | -4.86131 | 21271 ft | 357 kts | 128° |
| 2026-04-26 14:48 | 53.95309 | -4.82709 | 21260 ft | 358 kts | 128° |
| 2026-04-26 14:48 | 53.93832 | -4.79303 | 21262 ft | 358 kts | 128° |
| 2026-04-26 14:48 | 53.92373 | -4.75946 | 21256 ft | 358 kts | 128° |
| 2026-04-26 14:48 | 53.90890 | -4.72537 | 21252 ft | 358 kts | 128° |
| 2026-04-26 14:49 | 53.89424 | -4.69171 | 21264 ft | 359 kts | 128° |
| 2026-04-26 14:49 | 53.87945 | -4.65779 | 21265 ft | 359 kts | 128° |
| 2026-04-26 14:49 | 53.86465 | -4.62391 | 21273 ft | 359 kts | 128° |
| 2026-04-26 14:49 | 53.84978 | -4.58989 | 21254 ft | 359 kts | 128° |
| 2026-04-26 14:50 | 53.83482 | -4.55573 | 21260 ft | 359 kts | 128° |
| 2026-04-26 14:50 | 53.82013 | -4.52223 | 21264 ft | 359 kts | 128° |
| 2026-04-26 14:50 | 53.80529 | -4.48845 | 21263 ft | 359 kts | 128° |
| 2026-04-26 14:50 | 53.79045 | -4.45467 | 21266 ft | 359 kts | 128° |
| 2026-04-26 14:51 | 53.77568 | -4.42110 | 21266 ft | 359 kts | 128° |
| 2026-04-26 14:51 | 53.76076 | -4.38726 | 21266 ft | 358 kts | 128° |
| 2026-04-26 14:51 | 53.74589 | -4.35355 | 21263 ft | 358 kts | 128° |
| 2026-04-26 14:51 | 53.73106 | -4.31996 | 21268 ft | 358 kts | 129° |
| 2026-04-26 14:52 | 53.71617 | -4.28633 | 21271 ft | 358 kts | 129° |
| 2026-04-26 14:52 | 53.70130 | -4.25275 | 21271 ft | 357 kts | 129° |
| 2026-04-26 14:52 | 53.68654 | -4.21947 | 21264 ft | 357 kts | 129° |
| 2026-04-26 14:52 | 53.67171 | -4.18610 | 21261 ft | 357 kts | 129° |
| 2026-04-26 14:53 | 53.65691 | -4.15282 | 21255 ft | 357 kts | 129° |
| 2026-04-26 14:53 | 53.64198 | -4.11930 | 21256 ft | 357 kts | 129° |
| 2026-04-26 14:53 | 53.62720 | -4.08617 | 21256 ft | 357 kts | 129° |
| 2026-04-26 14:53 | 53.61224 | -4.05265 | 21258 ft | 357 kts | 129° |
| 2026-04-26 14:54 | 53.59741 | -4.01948 | 21252 ft | 357 kts | 129° |
| 2026-04-26 14:54 | 53.58237 | -3.98590 | 21256 ft | 357 kts | 129° |
| 2026-04-26 14:54 | 53.56746 | -3.95265 | 21250 ft | 356 kts | 129° |
| 2026-04-26 14:54 | 53.55274 | -3.91985 | 21256 ft | 356 kts | 129° |
| 2026-04-26 14:55 | 53.53782 | -3.88667 | 21241 ft | 356 kts | 129° |
| 2026-04-26 14:55 | 53.52294 | -3.85361 | 21261 ft | 355 kts | 129° |
| 2026-04-26 14:55 | 53.50817 | -3.82084 | 21254 ft | 355 kts | 129° |
| 2026-04-26 14:55 | 53.49308 | -3.78740 | 21254 ft | 356 kts | 129° |
| 2026-04-26 14:56 | 53.47830 | -3.75471 | 21248 ft | 355 kts | 129° |
| 2026-04-26 14:56 | 53.46343 | -3.72185 | 21245 ft | 355 kts | 129° |
| 2026-04-26 14:56 | 53.44839 | -3.68866 | 21249 ft | 355 kts | 129° |
| 2026-04-26 14:56 | 53.43354 | -3.65592 | 21252 ft | 355 kts | 129° |
| 2026-04-26 14:57 | 53.41856 | -3.62295 | 21243 ft | 355 kts | 130° |
| 2026-04-26 14:57 | 53.40345 | -3.59050 | 21245 ft | 355 kts | 132° |
| 2026-04-26 14:57 | 53.38732 | -3.55949 | 21253 ft | 354 kts | 134° |
| 2026-04-26 14:57 | 53.37106 | -3.52885 | 21246 ft | 354 kts | 134° |
| 2026-04-26 14:58 | 53.35484 | -3.49823 | 21252 ft | 354 kts | 134° |
| 2026-04-26 14:58 | 53.33859 | -3.46754 | 21246 ft | 354 kts | 134° |
| 2026-04-26 14:58 | 53.32232 | -3.43676 | 21244 ft | 354 kts | 134° |
| 2026-04-26 14:58 | 53.30590 | -3.40570 | 21246 ft | 354 kts | 134° |
| 2026-04-26 14:59 | 53.28981 | -3.37526 | 21248 ft | 354 kts | 133° |
| 2026-04-26 14:59 | 53.27358 | -3.34456 | 21238 ft | 354 kts | 134° |
| 2026-04-26 14:59 | 53.25726 | -3.31372 | 21240 ft | 354 kts | 134° |
| 2026-04-26 14:59 | 53.24642 | -3.29325 | 21247 ft | 353 kts | 134° |
| 2026-04-26 15:00 | 53.22470 | -3.25226 | 21252 ft | 353 kts | 134° |
| 2026-04-26 15:00 | 53.20850 | -3.22173 | 21254 ft | 353 kts | 134° |
| 2026-04-26 15:00 | 53.19259 | -3.19062 | 21242 ft | 355 kts | 130° |
| 2026-04-26 15:00 | 53.17889 | -3.15636 | 21240 ft | 355 kts | 125° |
| 2026-04-26 15:01 | 53.16579 | -3.12149 | 21158 ft | 355 kts | 124° |
| 2026-04-26 15:01 | 53.15282 | -3.08697 | 21078 ft | 355 kts | 125° |
| 2026-04-26 15:01 | 53.13969 | -3.05210 | 21030 ft | 355 kts | 125° |
| 2026-04-26 15:01 | 53.12674 | -3.01783 | 20888 ft | 351 kts | 124° |
| 2026-04-26 15:02 | 53.11379 | -2.98360 | 20547 ft | 350 kts | 124° |
| 2026-04-26 15:02 | 53.10077 | -2.94929 | 20290 ft | 347 kts | 124° |
| 2026-04-26 15:02 | 53.08797 | -2.91566 | 20252 ft | 349 kts | 124° |
| 2026-04-26 15:02 | 53.07494 | -2.88158 | 20253 ft | 350 kts | 124° |
| 2026-04-26 15:03 | 53.06117 | -2.84856 | 20260 ft | 349 kts | 129° |
| 2026-04-26 15:03 | 53.04664 | -2.81630 | 20258 ft | 350 kts | 129° |
| 2026-04-26 15:03 | 53.03193 | -2.78372 | 20264 ft | 350 kts | 129° |
| 2026-04-26 15:03 | 53.01746 | -2.75159 | 20266 ft | 350 kts | 129° |
| 2026-04-26 15:04 | 53.00284 | -2.71910 | 20260 ft | 351 kts | 129° |
| 2026-04-26 15:04 | 52.98840 | -2.68698 | 20264 ft | 351 kts | 129° |
| 2026-04-26 15:04 | 52.97377 | -2.65441 | 20267 ft | 351 kts | 129° |
| 2026-04-26 15:04 | 52.95940 | -2.62242 | 20246 ft | 350 kts | 129° |
| 2026-04-26 15:05 | 52.94507 | -2.59049 | 19621 ft | 349 kts | 128° |
| 2026-04-26 15:05 | 52.93553 | -2.56916 | 19396 ft | 340 kts | 128° |
| 2026-04-26 15:05 | 52.91716 | -2.52812 | 18933 ft | 329 kts | 129° |
| 2026-04-26 15:05 | 52.90367 | -2.49804 | 18532 ft | 323 kts | 128° |
| 2026-04-26 15:06 | 52.89045 | -2.46865 | 18048 ft | 320 kts | 128° |
| 2026-04-26 15:06 | 52.87707 | -2.43899 | 17571 ft | 320 kts | 128° |
| 2026-04-26 15:06 | 52.86380 | -2.40964 | 17091 ft | 320 kts | 128° |
| 2026-04-26 15:06 | 52.85054 | -2.38032 | 16616 ft | 321 kts | 129° |
| 2026-04-26 15:07 | 52.82384 | -2.32140 | 15666 ft | 320 kts | 129° |
| 2026-04-26 15:07 | 52.81041 | -2.29241 | 15192 ft | 319 kts | 131° |
| 2026-04-26 15:07 | 52.79615 | -2.26494 | 14718 ft | 318 kts | 133° |
| 2026-04-26 15:08 | 52.78144 | -2.23729 | 14090 ft | 323 kts | 133° |
| 2026-04-26 15:08 | 52.76658 | -2.20935 | 13312 ft | 327 kts | 133° |
| 2026-04-26 15:08 | 52.75169 | -2.18131 | 12505 ft | 330 kts | 133° |
| 2026-04-26 15:08 | 52.73677 | -2.15311 | 11698 ft | 329 kts | 133° |
| 2026-04-26 15:09 | 52.72195 | -2.12502 | 10874 ft | 324 kts | 133° |
| 2026-04-26 15:09 | 52.70730 | -2.09724 | 10049 ft | 321 kts | 132° |
| 2026-04-26 15:09 | 52.69290 | -2.06997 | 9235 ft | 317 kts | 132° |
| 2026-04-26 15:09 | 52.67860 | -2.04289 | 8470 ft | 311 kts | 132° |
| 2026-04-26 15:10 | 52.66475 | -2.01665 | 7831 ft | 303 kts | 132° |
| 2026-04-26 15:10 | 52.65572 | -1.99955 | 7417 ft | 298 kts | 131° |
| 2026-04-26 15:10 | 52.63795 | -1.96595 | 6586 ft | 289 kts | 131° |
| 2026-04-26 15:10 | 52.62489 | -1.94125 | 5959 ft | 283 kts | 131° |
| 2026-04-26 15:11 | 52.61160 | -1.91869 | 5334 ft | 277 kts | 143° |
| 2026-04-26 15:11 | 52.59449 | -1.90625 | 4938 ft | 261 kts | 164° |
| 2026-04-26 15:11 | 52.57752 | -1.89829 | 4706 ft | 244 kts | 167° |
| 2026-04-26 15:11 | 52.56155 | -1.89939 | 4458 ft | 225 kts | 204° |
| 2026-04-26 15:12 | 52.55105 | -1.91590 | 4225 ft | 206 kts | 244° |
| 2026-04-26 15:12 | 52.54664 | -1.93756 | 4022 ft | 200 kts | 255° |
| 2026-04-26 15:12 | 52.54318 | -1.95987 | 3831 ft | 202 kts | 255° |
| 2026-04-26 15:12 | 52.53986 | -1.98253 | 3637 ft | 205 kts | 259° |
| 2026-04-26 15:13 | 52.54156 | -2.00516 | 3416 ft | 206 kts | 300° |
| 2026-04-26 15:13 | 52.55222 | -2.02008 | 3228 ft | 206 kts | 333° |
| 2026-04-26 15:13 | 52.56528 | -2.03025 | 3014 ft | 210 kts | 335° |
| 2026-04-26 15:13 | 52.57912 | -2.03779 | 2744 ft | 215 kts | 358° |
| 2026-04-26 15:14 | 52.59258 | -2.02986 | 2577 ft | 206 kts | 47° |
| 2026-04-26 15:14 | 52.59770 | -2.00953 | 2533 ft | 188 kts | 95° |
| 2026-04-26 15:14 | 52.59504 | -1.98898 | 2505 ft | 182 kts | 110° |
| 2026-04-26 15:14 | 52.59095 | -1.96960 | 2488 ft | 176 kts | 113° |
| 2026-04-26 15:15 | 52.58671 | -1.95120 | 2480 ft | 170 kts | 113° |
| 2026-04-26 15:15 | 52.58254 | -1.93328 | 2474 ft | 163 kts | 113° |
| 2026-04-26 15:15 | 52.57863 | -1.91650 | 2471 ft | 156 kts | 113° |
| 2026-04-26 15:15 | 52.57477 | -1.89997 | 2478 ft | 152 kts | 114° |
| 2026-04-26 15:16 | 52.57112 | -1.88429 | 2484 ft | 142 kts | 113° |
| 2026-04-26 15:16 | 52.56621 | -1.87113 | 2458 ft | 128 kts | 136° |
| 2026-04-26 15:16 | 52.55882 | -1.86305 | 2442 ft | 129 kts | 158° |
| 2026-04-26 15:16 | 52.55085 | -1.85662 | 2515 ft | 131 kts | 153° |
| 2026-04-26 15:17 | 52.54272 | -1.84810 | 2349 ft | 140 kts | 149° |
| 2026-04-26 15:17 | 52.53729 | -1.84245 | 2106 ft | 138 kts | 148° |
| 2026-04-26 15:17 | 52.52706 | -1.83072 | 1729 ft | 132 kts | 146° |
| 2026-04-26 15:17 | 52.51975 | -1.82192 | 1549 ft | 130 kts | 146° |
| 2026-04-26 15:18 | 52.51246 | -1.81355 | 1425 ft | 129 kts | 148° |
| 2026-04-26 15:18 | 52.50487 | -1.80521 | 1279 ft | 134 kts | 148° |
| 2026-04-26 15:18 | 52.49714 | -1.79641 | 1135 ft | 134 kts | 148° |
| 2026-04-26 15:18 | 52.48933 | -1.78772 | 934 ft | 134 kts | 146° |
| 2026-04-26 15:19 | 52.48163 | -1.77913 | 738 ft | 133 kts | 147° |
| 2026-04-26 15:19 | 52.47414 | -1.77072 | 574 ft | 129 kts | 148° |
| 2026-04-26 15:19 | 52.46675 | -1.76266 | 419 ft | 126 kts | 148° |
| 2026-04-26 15:19 | 52.45972 | -1.75483 | 310 ft | 114 kts | 147° |
| 2026-04-26 15:20 | 52.45528 | -1.74960 | 324 ft | 27 kts | 146° |
| 2026-04-26 15:20 | 52.45397 | -1.74805 | 327 ft | 11 kts | 115° |
| 2026-04-26 15:20 | 52.45445 | -1.74646 | 325 ft | 15 kts | 55° |
| 2026-04-26 15:20 | 52.45470 | -1.74567 | 325 ft | 11 kts | 96° |
| 2026-04-26 15:21 | 52.45444 | -1.74473 | 325 ft | 5 kts | 117° |
| 2026-04-26 15:21 | 52.45427 | -1.74417 | 324 ft | 5 kts | 117° |
| 2026-04-26 15:21 | 52.45407 | -1.74355 | 324 ft | 6 kts | 117° |
| 2026-04-26 15:21 | 52.45384 | -1.74283 | 323 ft | 7 kts | 117° |
| 2026-04-26 15:22 | 52.45363 | -1.74216 | 322 ft | 6 kts | 117° |
| 2026-04-26 15:22 | 52.45343 | -1.74154 | 321 ft | 5 kts | 116° |
| 2026-04-26 15:22 | 52.45327 | -1.74096 | 321 ft | 5 kts | 116° |
| 2026-04-26 15:22 | 52.45308 | -1.74031 | 321 ft | 9 kts | 103° |
| 2026-04-26 15:23 | 52.45330 | -1.73937 | 323 ft | 7 kts | 57° |
| 2026-04-26 15:23 | 52.45354 | -1.73880 | 324 ft | 2 kts | 48° |
| 2026-04-26 15:23 | 52.45369 | -1.73876 | 324 ft | 2 kts | 341° |
| 2026-04-26 15:23 | 52.45389 | -1.73895 | 323 ft | 3 kts | 327° |
| 2026-04-26 15:24 | 52.45405 | -1.73913 | 323 ft | 2 kts | 325° |
| 2026-04-26 15:24 | 52.45413 | -1.73922 | 323 ft | 0 kts | 325° |
| 2026-04-26 15:24 | 52.45414 | -1.73924 | 323 ft | 0 kts | 325° |